Time;durP1;ratioP1;P1;durP2;ratioP2;P2;SDS_P1;SDS_P2;PMS_P1;PMS_P2;Temp;Humidity;BMP_temperature;BMP_pressure;BME280_temperature;BME280_humidity;BME280_pressure;Samples;Min_cycle;Max_cycle;Signal;HPM_P1;HPM_P2
2021/08/06 00:02:11;;;;;;;5.10;3.58;;;;;;;15.88;69.70;100861.63;5079329;28;20468;-77
2021/08/06 00:04:37;;;;;;;4.68;3.35;;;;;;;15.85;69.61;100853.97;5088237;28;20032;-78
2021/08/06 00:07:03;;;;;;;3.88;3.47;;;;;;;15.84;69.76;100855.91;5088125;28;20035;-77
2021/08/06 00:09:28;;;;;;;3.90;3.50;;;;;;;15.82;69.84;100855.41;5089712;28;20546;-77
2021/08/06 00:11:58;;;;;;;3.78;3.42;;;;;;;15.82;69.97;100852.66;5088899;28;20032;-76
2021/08/06 00:14:26;;;;;;;5.07;3.50;;;;;;;15.84;70.18;100855.91;5084242;28;20021;-76
2021/08/06 00:16:52;;;;;;;5.10;3.85;;;;;;;15.87;70.17;100860.81;5084454;28;20497;-75
2021/08/06 00:19:17;;;;;;;3.88;3.33;;;;;;;15.92;70.47;100863.44;5084602;28;20081;-76
2021/08/06 00:21:43;;;;;;;4.20;3.63;;;;;;;15.96;70.34;100858.97;5086368;28;20028;-75
2021/08/06 00:24:08;;;;;;;3.60;3.30;;;;;;;16.00;70.61;100856.41;5089395;28;20058;-75
2021/08/06 00:26:33;;;;;;;4.45;3.40;;;;;;;16.02;70.60;100861.63;5070703;28;20050;-76
2021/08/06 00:28:59;;;;;;;4.90;3.60;;;;;;;16.03;70.62;100852.22;5080129;28;20390;-76
2021/08/06 00:31:24;;;;;;;7.82;4.30;;;;;;;16.07;71.00;100855.97;5089505;28;20028;-75
2021/08/06 00:33:50;;;;;;;4.00;3.42;;;;;;;16.11;71.17;100855.06;5091650;28;20031;-74
2021/08/06 00:36:16;;;;;;;5.38;3.85;;;;;;;16.13;71.01;100852.00;5090579;28;20028;-75
2021/08/06 00:38:42;;;;;;;4.35;3.78;;;;;;;16.13;71.13;100852.00;5090485;28;20419;-76
2021/08/06 00:41:07;;;;;;;4.90;4.00;;;;;;;16.13;71.43;100843.75;5089647;28;20032;-76
2021/08/06 00:43:33;;;;;;;7.63;4.00;;;;;;;16.13;71.59;100849.25;5085625;28;20074;-76
2021/08/06 00:45:59;;;;;;;4.00;3.60;;;;;;;16.11;71.70;100852.31;5086034;28;20039;-76
2021/08/06 00:48:24;;;;;;;6.70;4.50;;;;;;;16.11;71.95;100855.06;5074116;28;20012;-75
2021/08/06 00:50:50;;;;;;;6.72;4.13;;;;;;;16.13;72.13;100857.50;5088432;28;20039;-76
2021/08/06 00:53:16;;;;;;;7.05;3.97;;;;;;;16.14;72.30;100859.94;5068715;28;20113;-76
2021/08/06 00:55:42;;;;;;;6.05;3.90;;;;;;;16.14;72.19;100859.94;5085677;28;20054;-77
2021/08/06 00:58:07;;;;;;;5.68;3.58;;;;;;;16.16;72.03;100851.38;5089441;28;20012;-76
2021/08/06 01:00:32;;;;;;;4.10;3.50;;;;;;;16.14;71.94;100854.44;5092470;28;20496;-76
2021/08/06 01:03:21;;;;;;;5.28;3.92;;;;;;;16.15;72.17;100860.75;5087647;28;20035;-76
2021/08/06 01:05:52;;;;;;;7.90;3.70;;;;;;;16.17;72.08;100850.25;5093370;28;20031;-76
2021/08/06 01:08:20;;;;;;;5.35;3.13;;;;;;;16.20;72.25;100855.97;5086564;28;20032;-77
2021/08/06 01:10:58;;;;;;;5.38;2.90;;;;;;;16.25;71.99;100848.72;5092960;28;20111;-76
2021/08/06 01:13:30;;;;;;;4.95;3.20;;;;;;;16.27;71.73;100858.28;5076005;28;20031;-75
2021/08/06 01:15:56;;;;;;;6.03;3.20;;;;;;;16.30;71.67;100854.09;5089445;28;20034;-75
2021/08/06 01:18:22;;;;;;;5.63;2.85;;;;;;;16.31;71.51;100859.28;5090359;28;20069;-75
2021/08/06 01:20:51;;;;;;;4.18;3.30;;;;;;;16.32;71.66;100860.09;5073778;28;20467;-76
2021/08/06 01:23:49;;;;;;;4.70;3.35;;;;;;;16.32;71.70;100860.91;5089216;28;20020;-76
2021/08/06 01:26:19;;;;;;;4.05;2.95;;;;;;;16.28;71.52;100859.91;5047218;28;20036;-76
2021/08/06 01:28:45;;;;;;;2.85;2.33;;;;;;;16.25;70.92;100860.53;5075521;28;20028;-76
2021/08/06 01:31:11;;;;;;;4.57;3.20;;;;;;;16.21;70.68;100854.03;5089724;28;20029;-76
2021/08/06 01:33:36;;;;;;;5.53;2.50;;;;;;;16.19;70.61;100862.56;5081564;28;20453;-76
2021/08/06 01:36:02;;;;;;;5.18;2.40;;;;;;;16.18;70.30;100860.97;5094948;28;20051;-76
2021/08/06 01:38:27;;;;;;;4.00;2.45;;;;;;;16.15;70.11;100856.09;5091880;28;20070;-76
2021/08/06 01:41:16;;;;;;;5.47;2.85;;;;;;;16.13;69.92;100857.50;5094576;28;20397;-76
2021/08/06 01:44:13;;;;;;;5.75;2.58;;;;;;;16.09;69.42;100856.50;5085745;28;20036;-77
2021/08/06 01:46:43;;;;;;;5.57;2.90;;;;;;;16.07;69.03;100864.22;5078549;28;20029;-76
2021/08/06 01:49:30;;;;;;;4.22;2.53;;;;;;;16.06;69.13;100862.63;5092540;28;20473;-76
2021/08/06 01:52:06;;;;;;;4.60;2.72;;;;;;;16.05;69.06;100863.75;5091790;28;20504;-76
2021/08/06 01:54:32;;;;;;;5.85;2.13;;;;;;;16.06;68.92;100862.63;5075807;28;20040;-76
2021/08/06 01:56:58;;;;;;;2.58;2.10;;;;;;;16.06;68.76;100862.63;5093507;28;20385;-76
2021/08/06 01:59:23;;;;;;;3.67;2.40;;;;;;;16.05;68.64;100861.00;5086496;28;20016;-77
2021/08/06 02:01:49;;;;;;;2.97;2.45;;;;;;;16.05;68.34;100855.50;5082214;28;20085;-76
2021/08/06 02:04:14;;;;;;;5.35;3.03;;;;;;;16.05;68.32;100861.00;5090290;28;20081;-76
2021/08/06 02:06:42;;;;;;;5.35;2.55;;;;;;;16.04;68.13;100870.34;5094826;28;20024;-76
2021/08/06 02:09:08;;;;;;;6.20;2.50;;;;;;;16.04;68.00;100870.34;5085217;28;20016;-76
2021/08/06 02:11:33;;;;;;;3.15;2.30;;;;;;;16.03;68.22;100868.72;5092745;28;20405;-76
2021/08/06 02:14:00;;;;;;;4.30;2.40;;;;;;;16.00;68.42;100874.84;5089603;28;20028;-76
2021/08/06 02:16:25;;;;;;;3.65;2.40;;;;;;;15.96;68.42;100871.91;5093183;28;20020;-76
2021/08/06 02:18:51;;;;;;;4.80;2.45;;;;;;;15.92;68.53;100877.19;5092175;28;20050;-76
2021/08/06 02:21:22;;;;;;;4.63;3.13;;;;;;;15.87;68.91;100877.28;5092506;28;20028;-76
2021/08/06 02:23:51;;;;;;;6.00;2.70;;;;;;;15.83;68.99;100876.31;5090433;28;20028;-77
2021/08/06 02:26:16;;;;;;;6.43;3.45;;;;;;;15.78;69.33;100873.66;5059216;28;20028;-77
2021/08/06 02:28:43;;;;;;;5.22;2.90;;;;;;;15.74;69.46;100867.13;5088328;28;20016;-76
2021/08/06 02:31:09;;;;;;;4.22;2.92;;;;;;;15.70;69.90;100871.63;5093115;28;20465;-76
2021/08/06 02:33:34;;;;;;;6.25;3.45;;;;;;;15.65;70.06;100879.94;5090453;28;20032;-76
2021/08/06 02:35:59;;;;;;;6.25;3.20;;;;;;;15.62;70.16;100880.53;5072005;28;20020;-77
2021/08/06 02:38:27;;;;;;;3.75;2.95;;;;;;;15.59;70.67;100881.97;5090789;28;20048;-76
2021/08/06 02:40:53;;;;;;;3.85;3.08;;;;;;;15.53;70.75;100877.69;5089130;28;20141;-76
2021/08/06 02:43:18;;;;;;;4.78;3.28;;;;;;;15.50;70.99;100881.06;5087495;28;20028;-75
2021/08/06 02:45:45;;;;;;;4.18;2.85;;;;;;;15.47;71.06;100877.00;5094068;28;20028;-76
2021/08/06 02:48:11;;;;;;;4.50;2.65;;;;;;;15.44;71.08;100874.84;5091230;28;20599;-75
2021/08/06 02:50:36;;;;;;;4.53;3.08;;;;;;;15.40;70.90;100879.31;5093951;28;20020;-75
2021/08/06 02:53:02;;;;;;;4.35;3.05;;;;;;;15.37;71.13;100882.66;5088048;28;20032;-76
2021/08/06 02:55:27;;;;;;;11.10;3.50;;;;;;;15.36;71.35;100881.06;5090727;28;20407;-76
2021/08/06 02:57:52;;;;;;;3.45;2.92;;;;;;;15.32;71.54;100888.25;5091916;28;20020;-77
2021/08/06 03:00:18;;;;;;;6.18;3.58;;;;;;;15.29;71.64;100886.13;5090281;28;20027;-75
2021/08/06 03:02:43;;;;;;;3.03;2.65;;;;;;;15.28;71.73;100887.25;5087226;28;20028;-75
2021/08/06 03:05:09;;;;;;;5.03;3.35;;;;;;;15.24;71.64;100877.97;5091614;28;20424;-76
2021/08/06 03:07:34;;;;;;;5.32;3.05;;;;;;;15.19;71.74;100873.38;5088016;28;20481;-76
2021/08/06 03:10:00;;;;;;;3.50;2.90;;;;;;;15.19;71.61;100873.38;5087622;28;20474;-76
2021/08/06 03:12:25;;;;;;;5.60;3.05;;;;;;;15.16;71.82;100871.25;5092401;28;20047;-76
2021/08/06 03:14:50;;;;;;;4.90;3.55;;;;;;;15.13;71.94;100866.34;5089967;28;20504;-76
2021/08/06 03:17:16;;;;;;;3.38;3.08;;;;;;;15.12;72.25;100869.41;5092071;28;20028;-76
2021/08/06 03:19:41;;;;;;;3.42;2.97;;;;;;;15.10;71.88;100870.53;5090387;28;20082;-76
2021/08/06 03:22:07;;;;;;;3.50;2.88;;;;;;;15.08;72.26;100875.50;5092908;28;20024;-76
2021/08/06 03:24:33;;;;;;;4.00;3.00;;;;;;;15.06;71.87;100864.03;5091884;28;20484;-77
2021/08/06 03:26:59;;;;;;;3.30;3.00;;;;;;;15.06;72.00;100863.22;5083293;28;20039;-77
2021/08/06 03:29:24;;;;;;;6.20;3.47;;;;;;;15.05;72.18;100867.84;5080820;28;20032;-76
2021/08/06 03:31:49;;;;;;;5.43;3.20;;;;;;;15.05;72.28;100861.56;5092569;28;20039;-76
2021/08/06 03:34:16;;;;;;;4.82;3.53;;;;;;;15.04;72.57;100860.75;5081534;28;20027;-76
2021/08/06 03:36:42;;;;;;;4.10;3.40;;;;;;;15.04;72.84;100852.50;5089246;28;20388;-77
2021/08/06 03:39:08;;;;;;;5.35;2.70;;;;;;;15.03;72.75;100845.41;5082266;28;20040;-76
2021/08/06 03:41:33;;;;;;;5.78;3.13;;;;;;;15.04;72.61;100849.78;5089049;28;20377;-76
2021/08/06 03:43:59;;;;;;;3.85;2.72;;;;;;;15.06;72.64;100841.25;5085718;28;20036;-75
2021/08/06 03:46:25;;;;;;;5.60;2.88;;;;;;;15.05;72.77;100839.59;5084341;28;20051;-76
2021/08/06 03:48:50;;;;;;;4.15;3.17;;;;;;;15.07;72.77;100842.88;5088973;28;20465;-75
2021/08/06 03:51:16;;;;;;;5.55;2.88;;;;;;;15.08;72.88;100850.78;5091332;28;20036;-77
2021/08/06 03:53:41;;;;;;;4.30;3.28;;;;;;;15.09;72.78;100841.44;5090186;28;20027;-76
2021/08/06 03:56:07;;;;;;;2.67;2.40;;;;;;;15.09;72.67;100844.19;5088295;28;20034;-76
2021/08/06 03:58:32;;;;;;;3.13;2.72;;;;;;;15.10;72.84;100837.56;5089768;28;20070;-77
2021/08/06 04:00:58;;;;;;;4.68;3.20;;;;;;;15.12;72.79;100845.53;5089663;28;20511;-77
2021/08/06 04:03:23;;;;;;;3.05;2.60;;;;;;;15.13;72.81;100846.31;5080387;28;20032;-77
2021/08/06 04:05:50;;;;;;;3.70;2.88;;;;;;;15.14;72.70;100834.22;5078960;28;20032;-76
2021/08/06 04:08:15;;;;;;;3.67;2.70;;;;;;;15.15;72.83;100833.13;5089668;28;20032;-76
2021/08/06 04:10:40;;;;;;;5.85;3.45;;;;;;;15.16;72.53;100840.22;5088528;28;20023;-76
2021/08/06 04:13:06;;;;;;;4.07;2.70;;;;;;;15.18;72.97;100838.00;5092660;28;20028;-77
2021/08/06 04:15:31;;;;;;;3.20;2.22;;;;;;;15.21;72.60;100831.91;5088171;28;20031;-76
2021/08/06 04:17:57;;;;;;;4.03;2.95;;;;;;;15.22;72.90;100831.59;5090561;28;20016;-76
2021/08/06 04:20:22;;;;;;;3.25;2.47;;;;;;;15.24;72.63;100831.28;5088703;28;20032;-76
2021/08/06 04:22:47;;;;;;;3.65;2.70;;;;;;;15.29;72.73;100823.75;5092025;28;20052;-76
2021/08/06 04:25:14;;;;;;;3.80;2.38;;;;;;;15.35;72.86;100829.16;5088793;28;20028;-77
2021/08/06 04:27:40;;;;;;;5.68;2.25;;;;;;;15.40;72.78;100835.34;5070818;28;20031;-76
2021/08/06 04:30:09;;;;;;;2.47;2.22;;;;;;;15.44;73.07;100833.66;5089307;28;20115;-77
2021/08/06 04:32:34;;;;;;;4.30;3.10;;;;;;;15.49;73.05;100839.00;5094712;28;20031;-76
2021/08/06 04:35:00;;;;;;;3.67;2.08;;;;;;;15.51;73.04;100831.28;5087395;28;20042;-77
2021/08/06 04:37:25;;;;;;;3.70;2.92;;;;;;;15.57;73.26;100828.44;5093822;28;20024;-76
2021/08/06 04:39:51;;;;;;;5.10;2.47;;;;;;;15.62;73.26;100836.56;5088310;28;20135;-76
2021/08/06 04:42:16;;;;;;;2.80;2.50;;;;;;;15.65;73.27;100834.03;5092147;28;20036;-76
2021/08/06 04:44:42;;;;;;;4.10;3.00;;;;;;;15.69;73.24;100821.34;5094396;28;20064;-75
2021/08/06 04:47:07;;;;;;;3.15;2.13;;;;;;;15.74;73.20;100825.91;5094775;28;20031;-76
2021/08/06 04:49:33;;;;;;;4.45;2.53;;;;;;;15.77;73.02;100825.31;5092520;28;20023;-76
2021/08/06 04:51:58;;;;;;;6.25;2.97;;;;;;;15.81;73.16;100826.31;5095660;28;20030;-76
2021/08/06 04:54:24;;;;;;;3.70;2.00;;;;;;;15.84;73.25;100820.19;5094397;28;20086;-75
2021/08/06 04:56:49;;;;;;;5.00;2.80;;;;;;;15.89;73.28;100822.81;5083603;28;20033;-75
2021/08/06 04:59:14;;;;;;;4.72;2.17;;;;;;;15.91;73.23;100823.34;5093636;28;20036;-75
2021/08/06 05:01:40;;;;;;;2.85;2.45;;;;;;;15.94;73.34;100825.47;5094292;28;20464;-75
2021/08/06 05:04:06;;;;;;;3.90;2.20;;;;;;;15.98;73.30;100818.22;5094467;28;20023;-75
2021/08/06 05:06:32;;;;;;;2.58;2.10;;;;;;;16.03;73.07;100819.22;5081670;28;20102;-77
2021/08/06 05:08:58;;;;;;;2.92;2.15;;;;;;;16.06;73.01;100816.66;5092305;28;20043;-75
2021/08/06 05:11:23;;;;;;;2.63;1.95;;;;;;;16.10;73.08;100816.88;5095286;28;20023;-76
2021/08/06 05:13:48;;;;;;;2.67;2.05;;;;;;;16.14;73.02;100818.69;5093875;28;20035;-76
2021/08/06 05:16:14;;;;;;;2.45;2.25;;;;;;;16.19;72.96;100812.25;5094166;28;20473;-76
2021/08/06 05:18:39;;;;;;;2.97;2.38;;;;;;;16.25;72.85;100811.00;5092834;28;20106;-76
2021/08/06 05:21:05;;;;;;;2.30;2.00;;;;;;;16.29;72.88;100812.03;5092468;28;20020;-76
2021/08/06 05:23:30;;;;;;;2.53;2.22;;;;;;;16.33;72.33;100807.50;5092381;28;20031;-76
2021/08/06 05:25:56;;;;;;;5.57;2.45;;;;;;;16.37;72.32;100799.47;5087154;28;20055;-77
2021/08/06 05:28:21;;;;;;;2.97;1.80;;;;;;;16.40;72.07;100802.41;5094666;28;20039;-77
2021/08/06 05:30:46;;;;;;;2.58;1.98;;;;;;;16.43;72.13;100801.75;5086498;28;20031;-77
2021/08/06 05:33:12;;;;;;;2.42;1.95;;;;;;;16.47;72.01;100806.63;5092096;28;20058;-76
2021/08/06 05:35:38;;;;;;;4.32;2.50;;;;;;;16.49;71.84;100805.19;5094338;28;20035;-76
2021/08/06 05:38:04;;;;;;;2.88;1.88;;;;;;;16.53;71.46;100808.97;5093140;28;20020;-76
2021/08/06 05:40:29;;;;;;;4.10;2.17;;;;;;;16.56;71.33;100811.09;5091439;28;20032;-76
2021/08/06 05:42:56;;;;;;;5.43;2.50;;;;;;;16.60;71.43;100801.06;5087619;28;20407;-77
2021/08/06 05:45:22;;;;;;;4.65;2.70;;;;;;;16.65;71.33;100797.38;5093663;28;20431;-76
2021/08/06 05:47:51;;;;;;;3.70;2.00;;;;;;;16.67;71.40;100792.38;5094470;28;20036;-75
2021/08/06 05:50:16;;;;;;;7.38;2.10;;;;;;;16.74;71.22;100805.69;5089366;28;20024;-76
2021/08/06 05:52:42;;;;;;;3.90;2.40;;;;;;;16.78;71.17;100799.28;5088550;28;20023;-76
2021/08/06 05:55:08;;;;;;;2.40;2.20;;;;;;;16.82;71.09;100797.50;5088314;28;20027;-76
2021/08/06 05:57:33;;;;;;;3.33;1.80;;;;;;;16.88;70.80;100800.13;5093045;28;20032;-74
2021/08/06 05:59:59;;;;;;;2.97;2.05;;;;;;;16.88;70.43;100789.91;5090092;28;20105;-75
2021/08/06 06:02:24;;;;;;;5.40;2.03;;;;;;;16.97;70.58;100795.47;5087582;28;20765;-76
2021/08/06 06:04:50;;;;;;;3.30;2.00;;;;;;;17.02;70.58;100803.59;5085696;28;20043;-75
2021/08/06 06:07:15;;;;;;;2.85;1.92;;;;;;;17.07;70.63;100804.25;5091032;28;20036;-75
2021/08/06 06:09:40;;;;;;;1.67;1.58;;;;;;;17.12;70.11;100795.06;5079154;28;20054;-75
2021/08/06 06:12:06;;;;;;;2.00;1.80;;;;;;;17.17;70.03;100796.88;5092311;28;20032;-77
2021/08/06 06:14:32;;;;;;;2.03;1.55;;;;;;;17.22;70.04;100793.97;5092371;28;20153;-76
2021/08/06 06:16:57;;;;;;;3.22;1.80;;;;;;;17.29;69.79;100797.88;5075410;28;20031;-76
2021/08/06 06:19:22;;;;;;;3.45;2.10;;;;;;;17.33;69.79;100800.00;5091141;28;20384;-76
2021/08/06 06:21:48;;;;;;;3.25;2.20;;;;;;;17.40;69.61;100794.81;5090611;28;20031;-75
2021/08/06 06:24:13;;;;;;;4.55;2.00;;;;;;;17.45;69.44;100791.94;5091458;28;20035;-75
2021/08/06 06:26:39;;;;;;;3.35;1.90;;;;;;;17.48;69.34;100794.03;5093027;28;20466;-76
2021/08/06 06:29:05;;;;;;;2.08;1.88;;;;;;;17.53;69.50;100791.13;5092457;28;20039;-76
2021/08/06 06:31:31;;;;;;;3.97;1.80;;;;;;;17.60;69.35;100794.25;5091659;28;20020;-76
2021/08/06 06:33:56;;;;;;;3.75;1.70;;;;;;;17.67;68.98;100788.25;5092325;28;20034;-76
2021/08/06 06:36:22;;;;;;;3.13;2.35;;;;;;;17.72;68.65;100793.59;5091208;28;20031;-76
2021/08/06 06:38:47;;;;;;;3.05;1.73;;;;;;;17.79;68.56;100784.88;5090585;28;20370;-76
2021/08/06 06:41:12;;;;;;;2.22;1.70;;;;;;;17.84;68.20;100788.31;5087099;28;20070;-76
2021/08/06 06:43:38;;;;;;;2.45;1.77;;;;;;;17.91;68.04;100791.38;5093642;28;20024;-76
2021/08/06 06:46:04;;;;;;;2.58;1.50;;;;;;;18.01;67.81;100795.78;5087805;28;20058;-75
2021/08/06 06:48:29;;;;;;;3.72;1.67;;;;;;;18.08;67.46;100787.81;5092284;28;20381;-76
2021/08/06 06:50:56;;;;;;;2.65;1.75;;;;;;;18.13;67.03;100787.66;5082092;28;20031;-76
2021/08/06 06:53:21;;;;;;;2.65;1.48;;;;;;;18.19;67.02;100788.31;5088771;28;20499;-76
2021/08/06 06:55:47;;;;;;;3.45;1.80;;;;;;;18.26;66.72;100793.34;5070633;28;20081;-76
2021/08/06 06:58:12;;;;;;;3.28;1.67;;;;;;;18.32;66.38;100792.84;5086059;28;20032;-76
2021/08/06 07:00:38;;;;;;;6.78;1.80;;;;;;;18.37;66.18;100789.94;5090671;28;20027;-75
2021/08/06 07:03:03;;;;;;;3.20;1.58;;;;;;;18.45;65.99;100795.78;5091968;28;20021;-76
2021/08/06 07:05:29;;;;;;;2.08;1.88;;;;;;;18.52;65.50;100787.78;5087274;28;20023;-76
2021/08/06 07:07:54;;;;;;;3.35;1.55;;;;;;;18.57;65.40;100784.88;5092674;28;20080;-76
2021/08/06 07:10:21;;;;;;;2.38;1.33;;;;;;;18.62;64.82;100776.41;5081664;28;20091;-76
2021/08/06 07:12:46;;;;;;;3.33;1.50;;;;;;;18.69;64.64;100781.41;5093570;28;20027;-76
2021/08/06 07:15:13;;;;;;;2.35;1.90;;;;;;;18.74;64.16;100781.25;5090317;28;20027;-76
2021/08/06 07:17:38;;;;;;;1.83;1.45;;;;;;;18.82;63.92;100777.69;5091115;28;20024;-75
2021/08/06 07:20:05;;;;;;;2.58;1.65;;;;;;;18.88;63.62;100781.06;5086403;28;20023;-75
2021/08/06 07:22:30;;;;;;;1.60;1.15;;;;;;;18.94;62.80;100769.53;5092160;28;20470;-75
2021/08/06 07:24:55;;;;;;;2.65;1.60;;;;;;;19.01;63.00;100772.56;5087716;28;20024;-75
2021/08/06 07:27:21;;;;;;;1.95;1.40;;;;;;;19.08;62.17;100770.09;5084256;28;20032;-75
2021/08/06 07:29:46;;;;;;;2.13;1.40;;;;;;;19.16;62.03;100764.88;5084629;28;20032;-75
2021/08/06 07:32:12;;;;;;;2.45;1.65;;;;;;;19.24;61.53;100764.03;5065059;28;20073;-76
2021/08/06 07:34:37;;;;;;;1.85;1.50;;;;;;;19.30;60.88;100759.94;5081476;28;20373;-75
2021/08/06 07:37:03;;;;;;;2.33;1.52;;;;;;;19.37;60.44;100751.94;5084240;28;20024;-75
2021/08/06 07:39:28;;;;;;;2.22;1.40;;;;;;;19.45;60.11;100762.13;5081652;28;20045;-76
2021/08/06 07:41:54;;;;;;;2.70;1.50;;;;;;;19.56;59.81;100747.91;5098818;28;20308;-75
2021/08/06 07:44:19;;;;;;;3.25;1.50;;;;;;;19.64;59.58;100750.63;5048827;28;20942;-75
2021/08/06 07:46:45;;;;;;;2.47;1.10;;;;;;;19.71;58.82;100755.63;5080594;28;20105;-76
2021/08/06 07:49:10;;;;;;;2.00;1.23;;;;;;;19.78;59.02;100757.84;5083243;28;20031;-75
2021/08/06 07:51:37;;;;;;;2.47;1.33;;;;;;;19.87;58.78;100756.66;5082590;28;20370;-75
2021/08/06 07:54:02;;;;;;;3.25;1.73;;;;;;;19.98;58.81;100756.25;5083503;28;20440;-75
2021/08/06 07:56:28;;;;;;;1.70;1.35;;;;;;;20.12;58.34;100748.47;5083154;28;20032;-75
2021/08/06 07:58:53;;;;;;;2.75;1.35;;;;;;;20.24;57.66;100756.81;5086772;28;20020;-75
2021/08/06 08:01:19;;;;;;;3.30;1.48;;;;;;;20.32;57.59;100755.94;5090895;28;20192;-74
2021/08/06 08:03:45;;;;;;;1.90;1.20;;;;;;;20.40;57.39;100752.25;5071006;28;20429;-75
2021/08/06 08:06:11;;;;;;;2.60;1.85;;;;;;;20.49;57.06;100748.59;5079402;28;20031;-76
2021/08/06 08:08:37;;;;;;;3.13;1.30;;;;;;;20.66;56.71;100750.41;5089566;28;20020;-75
2021/08/06 08:11:03;;;;;;;4.10;1.20;;;;;;;20.74;56.17;100744.78;5089200;28;20393;-74
2021/08/06 08:13:28;;;;;;;4.07;1.60;;;;;;;20.81;55.88;100739.47;5091562;28;20032;-75
2021/08/06 08:15:54;;;;;;;3.88;1.33;;;;;;;20.91;55.72;100738.22;5084639;28;20498;-75
2021/08/06 08:18:19;;;;;;;2.38;1.45;;;;;;;20.99;55.23;100739.25;5083732;28;20020;-75
2021/08/06 08:20:47;;;;;;;3.20;1.40;;;;;;;21.02;55.34;100735.78;5083326;28;20028;-75
2021/08/06 08:23:12;;;;;;;2.17;1.30;;;;;;;20.97;54.95;100733.25;5070643;28;20028;-75
2021/08/06 08:25:38;;;;;;;2.78;1.65;;;;;;;20.97;54.86;100730.47;5080273;28;20390;-75
2021/08/06 08:28:04;;;;;;;2.67;1.40;;;;;;;21.05;54.88;100732.31;5089451;28;20020;-76
2021/08/06 08:30:29;;;;;;;2.08;1.35;;;;;;;21.18;54.73;100731.19;5087460;28;20028;-76
2021/08/06 08:32:54;;;;;;;3.85;1.70;;;;;;;21.26;54.36;100721.94;5091166;28;20016;-76
2021/08/06 08:35:20;;;;;;;2.20;1.48;;;;;;;21.32;54.13;100724.47;5091313;28;20027;-76
2021/08/06 08:37:45;;;;;;;2.13;1.38;;;;;;;21.37;53.85;100735.34;5090224;28;20073;-75
2021/08/06 08:40:11;;;;;;;4.07;1.75;;;;;;;21.48;53.58;100726.19;5084773;28;20044;-75
2021/08/06 08:42:36;;;;;;;2.72;1.40;;;;;;;21.59;53.41;100723.75;5092017;28;20024;-75
2021/08/06 08:45:04;;;;;;;1.50;1.30;;;;;;;21.93;52.89;100727.13;5089257;28;20059;-75
2021/08/06 08:47:32;;;;;;;2.83;1.40;;;;;;;22.26;52.11;100723.31;5078793;28;20115;-75
2021/08/06 08:49:57;;;;;;;4.93;1.50;;;;;;;22.49;51.77;100721.56;5084863;28;20498;-76
2021/08/06 08:52:23;;;;;;;2.72;1.50;;;;;;;22.69;51.39;100713.34;5070755;28;20055;-75
2021/08/06 08:54:48;;;;;;;1.80;1.50;;;;;;;22.83;51.05;100719.25;5088323;28;20024;-75
2021/08/06 08:57:21;;;;;;;2.88;1.08;;;;;;;22.88;50.61;100709.84;5084011;28;20032;-79
2021/08/06 08:59:46;;;;;;;2.45;1.38;;;;;;;22.90;50.54;100719.44;5084453;28;20043;-77
2021/08/06 09:02:12;;;;;;;3.05;1.58;;;;;;;22.93;50.41;100720.69;5087382;28;20028;-77
2021/08/06 09:04:37;;;;;;;2.75;1.40;;;;;;;22.94;50.40;100720.31;5051098;28;20047;-82
2021/08/06 09:07:03;;;;;;;4.97;1.40;;;;;;;23.04;50.12;100705.13;5089334;28;20028;-81
2021/08/06 09:09:28;;;;;;;2.47;1.33;;;;;;;23.09;50.12;100704.84;5089020;28;20380;-85
2021/08/06 09:12:11;;;;;;;2.00;1.38;;;;;;;23.17;50.13;100701.06;5088752;28;20032;-82
2021/08/06 09:14:37;;;;;;;4.22;1.40;;;;;;;23.21;49.51;100709.47;5088935;28;20028;-82
2021/08/06 09:17:05;;;;;;;3.47;1.30;;;;;;;23.23;49.69;100704.38;5073352;28;20036;-81
2021/08/06 09:19:55;;;;;;;2.45;1.38;;;;;;;23.31;49.42;100700.59;5093395;28;20020;-82
2021/08/06 09:22:22;;;;;;;1.75;1.20;;;;;;;23.40;49.75;100692.84;5078625;28;20135;-82
2021/08/06 09:25:07;;;;;;;2.33;1.33;;;;;;;23.48;49.27;100694.59;5089323;28;20031;-82
2021/08/06 09:27:35;;;;;;;2.90;1.67;;;;;;;23.61;49.24;100686.94;5085546;28;20024;-85
2021/08/06 09:30:01;;;;;;;3.60;1.50;;;;;;;23.68;48.86;100692.66;5092267;28;20028;-86
2021/08/06 09:32:27;;;;;;;2.72;1.40;;;;;;;23.79;48.82;100692.91;5099055;28;20504;-86
2021/08/06 09:34:52;;;;;;;2.42;1.35;;;;;;;23.86;48.52;100703.38;5072591;28;20028;-86
2021/08/06 09:37:24;;;;;;;2.40;1.42;;;;;;;23.84;48.12;100681.47;5092405;28;20032;-88
2021/08/06 09:39:50;;;;;;;2.55;1.73;;;;;;;23.66;48.08;100689.44;5093936;28;20070;-89
2021/08/06 09:42:17;;;;;;;2.63;1.50;;;;;;;23.68;48.74;100686.25;5092561;28;20688;-86
2021/08/06 09:44:42;;;;;;;2.80;1.65;;;;;;;23.77;48.12;100691.69;5093800;28;20031;-81
2021/08/06 09:47:19;;;;;;;2.53;1.38;;;;;;;23.84;47.70;100689.03;5075214;28;20028;-81
2021/08/06 09:49:47;;;;;;;5.03;1.20;;;;;;;23.93;48.02;100686.84;5072049;28;20123;-76
2021/08/06 09:52:13;;;;;;;3.60;1.45;;;;;;;24.13;47.97;100690.41;5088731;28;20107;-77
2021/08/06 09:54:39;;;;;;;2.55;1.33;;;;;;;24.24;47.89;100683.03;5091532;28;20039;-76
2021/08/06 09:57:09;;;;;;;4.22;1.33;;;;;;;24.21;47.52;100669.88;5088544;28;20432;-78
2021/08/06 09:59:35;;;;;;;1.85;1.20;;;;;;;24.15;47.79;100665.78;5090806;28;20020;-77
2021/08/06 10:02:20;;;;;;;3.22;1.30;;;;;;;24.07;47.81;100675.16;5092118;28;20026;-76
2021/08/06 10:04:57;;;;;;;3.60;1.83;;;;;;;24.23;48.29;100670.31;5092847;28;20039;-76
2021/08/06 10:07:24;;;;;;;1.90;1.25;;;;;;;24.38;47.48;100669.38;5087770;28;20032;-77
2021/08/06 10:09:49;;;;;;;1.98;1.60;;;;;;;24.56;47.10;100682.88;5089480;28;20024;-77
2021/08/06 10:12:14;;;;;;;2.83;1.45;;;;;;;24.76;47.13;100678.81;5093582;28;20536;-78
2021/08/06 10:14:40;;;;;;;1.85;1.50;;;;;;;24.83;47.02;100672.56;5095252;28;20113;-79
2021/08/06 10:17:05;;;;;;;1.33;1.23;;;;;;;24.95;46.48;100675.13;5087749;28;20016;-78
2021/08/06 10:19:31;;;;;;;1.95;1.30;;;;;;;25.03;46.28;100664.91;5075945;28;20024;-78
2021/08/06 10:21:57;;;;;;;3.45;1.30;;;;;;;25.17;46.33;100665.13;5084737;28;20057;-78
2021/08/06 10:24:22;;;;;;;1.83;1.25;;;;;;;25.24;45.89;100659.66;5084998;28;20123;-79
2021/08/06 10:26:48;;;;;;;1.95;1.65;;;;;;;25.14;45.79;100659.47;5086348;28;20055;-76
2021/08/06 10:29:13;;;;;;;3.78;1.50;;;;;;;25.02;45.32;100652.13;5086862;28;20016;-79
2021/08/06 10:31:39;;;;;;;3.33;1.52;;;;;;;25.06;45.80;100654.97;5084143;28;20031;-78
2021/08/06 10:34:08;;;;;;;1.70;1.25;;;;;;;25.12;45.25;100654.25;5078236;28;20471;-78
2021/08/06 10:36:37;;;;;;;3.15;1.50;;;;;;;25.38;44.55;100649.88;5084172;28;20040;-79
2021/08/06 10:39:02;;;;;;;1.50;1.20;;;;;;;25.52;44.28;100647.28;5084111;28;20131;-78
2021/08/06 10:41:29;;;;;;;4.38;1.75;;;;;;;25.63;44.29;100655.78;5090343;28;20024;-78
2021/08/06 10:44:02;;;;;;;3.20;1.50;;;;;;;25.77;43.76;100641.19;5056562;28;20077;-78
2021/08/06 10:46:48;;;;;;;3.30;1.30;;;;;;;26.01;43.62;100643.47;5071928;28;20452;-78
2021/08/06 10:49:14;;;;;;;5.47;1.73;;;;;;;26.22;43.11;100653.25;5089613;28;20028;-78
2021/08/06 10:51:39;;;;;;;3.40;1.80;;;;;;;26.32;42.30;100649.78;5087545;28;20031;-77
2021/08/06 10:54:05;;;;;;;3.60;1.70;;;;;;;26.23;42.34;100640.91;5066797;28;20028;-78
2021/08/06 10:56:37;;;;;;;2.13;1.30;;;;;;;26.02;42.25;100633.91;5085275;28;20023;-78
2021/08/06 10:59:13;;;;;;;2.55;1.42;;;;;;;26.15;42.50;100639.22;5089675;28;20020;-78
2021/08/06 11:01:40;;;;;;;2.55;1.30;;;;;;;26.29;41.88;100634.56;5085598;28;20643;-79
2021/08/06 11:04:15;;;;;;;1.90;1.23;;;;;;;26.41;42.13;100647.47;5083755;28;20034;-78
2021/08/06 11:06:52;;;;;;;3.38;1.90;;;;;;;26.61;41.56;100639.69;5090488;28;20060;-78
2021/08/06 11:12:11;;;;;;;3.20;1.58;;;;;;;26.98;41.24;100645.16;5090276;28;20091;-78
2021/08/06 11:14:39;;;;;;;1.50;1.33;;;;;;;27.07;40.79;100649.63;5088876;28;20105;-77
2021/08/06 11:17:10;;;;;;;2.33;1.42;;;;;;;27.18;40.61;100640.13;5088881;28;20040;-76
2021/08/06 11:19:36;;;;;;;2.47;1.60;;;;;;;27.33;40.89;100635.38;5088649;28;20031;-78
2021/08/06 11:22:05;;;;;;;2.63;1.70;;;;;;;27.50;40.40;100633.06;5091360;28;20032;-78
2021/08/06 11:24:41;;;;;;;1.98;1.80;;;;;;;27.67;40.24;100643.53;5075939;28;20032;-77
2021/08/06 11:27:07;;;;;;;3.95;1.58;;;;;;;27.79;39.91;100623.56;5087821;28;20107;-78